Home > Products > Valid Products > TAF

000
FTUS43 KLSX 311300 AAA
TAFUIN
TAF AMD
KUIN 311307Z 3113/0112 22005KT P6SM SCT025 BKN120
      TEMPO 3113/3117 BKN025
     FM311700 22008KT 4SM -RA SCT009 OVC015
     FM312000 16007KT 2SM -RA OVC009
     FM010300 16008KT 2SM -RASN SCT005 OVC009
     FM010900 14008KT 2SM -SN OVC005=



000
FTUS43 KLSX 311100
TAFUIN
TAF
KUIN 311121Z 3112/0112 20005KT P6SM SCT030 BKN120
     FM311700 22008KT 4SM -RA SCT009 OVC015
     FM312000 16007KT 2SM -RA OVC009
     FM010300 16008KT 2SM -RASN SCT005 OVC009
     FM010900 14008KT 2SM -SN OVC005=



000
FTUS43 KLSX 311100
TAFCOU
TAF
KCOU 311121Z 3112/0112 18005KT P6SM OVC100
     FM311500 19006KT 6SM -RA SCT025 OVC050
     FM312100 12007KT 3SM -RA OVC025
     FM010800 13005KT 2SM RA SCT009 OVC015=



000
FTUS43 KLSX 311100
TAFSUS
TAF
KSUS 311121Z 3112/0112 00000KT P6SM BKN120
     FM311500 21006KT P6SM OVC060
     FM312200 15006KT 5SM -RA SCT015 OVC025
     FM010100 12005KT 6SM -RA SCT025 OVC050
     FM010600 15006KT 3SM -RA OVC020=



000
FTUS43 KLSX 311100
TAFSTL
TAF
KSTL 311121Z 3112/0118 18005KT P6SM BKN120
     FM311500 21006KT P6SM OVC060
     FM312200 15006KT 4SM -RA SCT015 OVC025
     FM010100 12005KT 6SM -RA SCT025 OVC050
     FM010600 15006KT 3SM -RA OVC020
     FM011400 19008KT 2SM RA SCT009 OVC015=



000
FTUS43 KLSX 310800 AAA
TAFSTL
TAF AMD
KSTL 310858Z 3109/0112 18005KT P6SM BKN150
     FM311500 21007KT P6SM OVC060
     FM312100 17006KT 6SM -RA SCT020 OVC040
     FM010900 16007KT 3SM -RASN OVC020=



000
FTUS43 KLSX 310500
TAFUIN
TAF
KUIN 310527Z 3106/0106 18005KT P6SM BKN250
     FM311500 22008KT P6SM OVC080
     FM311800 19008KT 5SM -RA OVC025
     FM010400 16008KT 2SM -SN OVC009=



000
FTUS43 KLSX 310500
TAFSTL
TAF
KSTL 310527Z 3106/0112 16004KT P6SM BKN150
     FM311500 21007KT P6SM OVC080
     FM312100 17006KT 6SM -RA SCT020 OVC040
     FM010900 16007KT 3SM -RASN OVC020=



000
FTUS43 KLSX 310500
TAFCOU
TAF
KCOU 310527Z 3106/0106 14005KT P6SM BKN150
     FM311200 19005KT P6SM OVC080
     FM311500 19006KT 6SM -RA OVC050
     FM312100 17007KT 5SM -RA OVC030=



000
FTUS43 KLSX 310500
TAFSUS
TAF
KSUS 310527Z 3106/0106 VRB03KT P6SM BKN150
     FM311500 21005KT P6SM OVC080
     FM312100 17006KT 6SM -RA SCT020 OVC040=



000
FTUS43 KLSX 310200 AAA
TAFSTL
TAF AMD
KSTL 310250Z 3103/0106 VRB03KT P6SM BKN250
     FM310600 17004KT P6SM BKN150
     FM311500 21007KT P6SM OVC080
     FM312100 17006KT 6SM -RA SCT020 OVC040=



000
FTUS43 KLSX 302300
TAFSTL
TAF
KSTL 302320Z 3100/0106 VRB03KT P6SM BKN250
     FM310600 17004KT P6SM BKN150
     FM311500 21007KT P6SM OVC080
     FM312100 17006KT 6SM -RA SCT020 OVC040=



000
FTUS43 KLSX 302300
TAFSUS
TAF
KSUS 302320Z 3100/3124 VRB03KT P6SM BKN250
     FM310600 VRB03KT P6SM BKN150
     FM311500 21005KT P6SM OVC080
     FM312100 17006KT 6SM -RA SCT020 OVC040=



000
FTUS43 KLSX 302300
TAFCOU
TAF
KCOU 302320Z 3100/3124 14005KT P6SM BKN150
     FM311200 19005KT P6SM OVC080
     FM311500 19006KT P6SM -RA OVC050=



000
FTUS43 KLSX 302300
TAFUIN
TAF
KUIN 302320Z 3100/3124 17005KT P6SM BKN250
     FM311500 22008KT P6SM OVC080
     FM312000 19008KT 5SM -RA OVC025=



000
FTUS43 KLSX 302000 AAA
TAFSTL
TAF AMD
KSTL 302059Z 3021/3124 VRB03KT P6SM BKN250
     FM310600 17004KT P6SM BKN150
     FM311500 21007KT P6SM OVC080
     FM312100 17006KT P6SM -RA OVC050=



000
FTUS43 KLSX 301700
TAFCOU
TAF
KCOU 301720Z 3018/3118 VRB04KT P6SM BKN250
     FM310000 14005KT P6SM BKN150
     FM311200 19005KT P6SM OVC080
     FM311500 19006KT P6SM -RA OVC050=



000
FTUS43 KLSX 301700
TAFSTL
TAF
KSTL 301720Z 3018/3124 VRB04KT P6SM BKN250
     FM310600 17004KT P6SM BKN150
     FM311500 21007KT P6SM OVC080
     FM312100 17006KT P6SM -RA OVC050=



000
FTUS43 KLSX 301700
TAFUIN
TAF
KUIN 301720Z 3018/3118 VRB03KT P6SM BKN250
     FM310000 15005KT P6SM BKN250
     FM311500 22007KT P6SM OVC080=



000
FTUS43 KLSX 301700
TAFSUS
TAF
KSUS 301720Z 3018/3118 VRB03KT P6SM BKN250
     FM310600 VRB03KT P6SM BKN150
     FM311500 21005KT P6SM OVC080=



000
FTUS43 KLSX 301400 AAA
TAFSTL
TAF AMD
KSTL 301457Z 3015/3118 02008KT P6SM FEW025
     FM301800 VRB04KT P6SM SCT250
     FM310500 17005KT P6SM BKN250=



000
FTUS43 KLSX 301100
TAFSTL
TAF
KSTL 301128Z 3012/3118 34012KT P6SM BKN025
     FM301300 35008KT P6SM SCT025
     FM301700 VRB04KT P6SM SKC
     FM310500 17005KT P6SM SCT250=



000
FTUS43 KLSX 301100
TAFCOU
TAF
KCOU 301128Z 3012/3112 36006KT P6SM SKC
     FM301700 VRB04KT P6SM SKC
     FM310000 17005KT P6SM SCT250=



000
FTUS43 KLSX 301100
TAFSUS
TAF
KSUS 301128Z 3012/3112 35008KT P6SM BKN025
     FM301300 34006KT P6SM SCT025
     FM301700 VRB03KT P6SM SKC
     FM310500 17005KT P6SM SCT250=



000
FTUS43 KLSX 301100
TAFUIN
TAF
KUIN 301128Z 3012/3112 36008KT P6SM SCT025
     FM301400 VRB04KT P6SM SKC
     FM310000 17005KT P6SM SCT250=



000
FTUS43 KLSX 301000 AAA
TAFSUS
TAF AMD
KSUS 301007Z 3010/3106 33007KT P6SM BKN025
     FM301200 34006KT P6SM SCT025
     FM301700 VRB03KT P6SM SKC=



000
FTUS43 KLSX 300900 AAA
TAFUIN
TAF AMD
KUIN 300901Z 3009/3106 36012KT P6SM BKN025
      TEMPO 3009/3010 SCT025
     FM301000 36008KT P6SM SCT030
     FM301600 VRB04KT P6SM SKC=



000
FTUS43 KLSX 300900 AAC
TAFSTL
TAF AMD
KSTL 300900Z 3009/3112 32012KT P6SM BKN025
     FM301200 35008KT P6SM SCT025
     FM301800 VRB04KT P6SM SKC
     FM310600 16005KT P6SM SCT200=



000
FTUS43 KLSX 300800 AAB
TAFSTL
TAF AMD
KSTL 300818Z 3008/3112 32010KT P6SM BKN025
     FM301200 35008KT P6SM SCT025
     FM301800 VRB04KT P6SM SKC
     FM310600 16005KT P6SM SCT200=



000
FTUS43 KLSX 300700 AAA
TAFSTL
TAF AMD
KSTL 300722Z 3007/3112 32012KT P6SM BKN035
     FM300900 33010KT P6SM BKN025
     FM301200 35008KT P6SM SCT025
     FM301800 VRB04KT P6SM SKC
     FM310600 16005KT P6SM SCT200=



000
FTUS43 KLSX 300500
TAFUIN
TAF
KUIN 300538Z 3006/3106 34012KT P6SM BKN025
      TEMPO 3006/3009 SCT025
     FM300900 36008KT P6SM SCT030
     FM301600 VRB04KT P6SM SKC=



000
FTUS43 KLSX 300500
TAFSTL
TAF
KSTL 300538Z 3006/3112 33012KT P6SM BKN025
      TEMPO 3006/3009 SCT025
     FM301200 35008KT P6SM SCT025
     FM301800 VRB04KT P6SM SKC
     FM310600 16005KT P6SM SCT200=



000
FTUS43 KLSX 300500
TAFSUS
TAF
KSUS 300538Z 3006/3106 34009KT P6SM BKN035
      TEMPO 3006/3009 FEW030
     FM301200 34009KT P6SM SCT025
     FM301700 VRB03KT P6SM SKC=



000
FTUS43 KLSX 300500
TAFCOU
TAF
KCOU 300538Z 3006/3106 34010KT P6SM FEW030
     FM301200 02006KT P6SM SKC
     FM301700 VRB04KT P6SM SKC=



000
FTUS43 KLSX 300400 AAB
TAFSUS
TAF AMD
KSUS 300410Z 3004/3024 32012KT P6SM BKN035
     FM300600 34009KT P6SM SCT035
     FM301900 VRB03KT P6SM SKC=



000
FTUS43 KLSX 300400 AAC
TAFSTL
TAF AMD
KSTL 300410Z 3004/3106 34012KT P6SM BKN025
     FM300700 35008KT P6SM SCT030
     FM301900 VRB04KT P6SM SKC=



000
FTUS43 KLSX 300400 AAB
TAFUIN
TAF AMD
KUIN 300404Z 3004/3024 33014G22KT P6SM BKN025
     FM300600 34012KT P6SM SCT025
     FM300900 36008KT P6SM SCT020
     FM301600 VRB04KT P6SM SKC=



000
FTUS43 KLSX 300300 AAB
TAFSTL
TAF AMD
KSTL 300300Z 3003/3106 34012KT P6SM BKN025
     FM301400 35008KT P6SM SCT020
     FM301900 VRB04KT P6SM SKC=



000
FTUS43 KLSX 300200 AAA
TAFUIN
TAF AMD
KUIN 300209Z 3002/3024 33014G22KT P6SM BKN025
     FM300600 34012KT P6SM BKN025
     FM300900 36008KT P6SM SCT020
     FM301600 VRB04KT P6SM SKC=



000
FTUS43 KLSX 300200 AAB
TAFCOU
TAF AMD
KCOU 300208Z 3002/3024 33013KT P6SM BKN030
     FM300500 35010KT P6SM SCT030
     FM301200 02006KT P6SM FEW020
     FM301700 VRB04KT P6SM SKC=



000
FTUS43 KLSX 300100 AAA
TAFCOU
TAF AMD
KCOU 300110Z 3001/3024 33014G22KT P6SM BKN025
     FM300400 35010KT P6SM BKN020
     FM301200 02006KT P6SM FEW020
     FM301700 VRB04KT P6SM SKC=



000
FTUS43 KLSX 300100 AAA
TAFSUS
TAF AMD
KSUS 300108Z 3001/3024 32013G21KT P6SM BKN025
     FM300600 34009KT P6SM BKN020
     FM301900 VRB03KT P6SM SKC=



000
FTUS43 KLSX 300100 AAA
TAFSTL
TAF AMD
KSTL 300108Z 3001/3106 33015G22KT P6SM BKN025
     FM300600 34010KT P6SM BKN020
     FM301400 35008KT P6SM SCT020
     FM301900 VRB04KT P6SM SKC=



000
FTUS43 KLSX 292300
TAFUIN
TAF
KUIN 292334Z 3000/3024 33013KT P6SM BKN020
     FM301100 36008KT P6SM SCT020
     FM301600 VRB04KT P6SM SKC=



000
FTUS43 KLSX 292300
TAFSTL
TAF
KSTL 292334Z 3000/3106 33010KT P6SM BKN020
     FM301400 35008KT P6SM SCT020
     FM301900 VRB04KT P6SM SKC=



000
FTUS43 KLSX 292300
TAFCOU
TAF
KCOU 292334Z 3000/3024 33009KT P6SM BKN020
     FM301200 02006KT P6SM FEW020
     FM301700 VRB04KT P6SM SKC=



000
FTUS43 KLSX 292300
TAFSUS
TAF
KSUS 292334Z 3000/3024 34010KT P6SM BKN025
     FM301400 35007KT P6SM SCT025
     FM301900 VRB03KT P6SM SKC=



000
FTUS43 KLSX 292100 AAA
TAFSUS
TAF AMD
KSUS 292139Z 2922/3018 31012G20KT P6SM OVC025
     FM300000 33010KT P6SM BKN020
     FM301400 35008KT P6SM SKC=



000
FTUS43 KLSX 292100 AAA
TAFUIN
TAF AMD
KUIN 292124Z 2921/3018 32014G22KT P6SM OVC020
     FM300000 33014KT P6SM BKN015
     FM301600 36008KT P6SM SKC=



000
FTUS43 KLSX 292000 AAA
TAFSTL
TAF AMD
KSTL 292050Z 2921/3024 31012G20KT P6SM OVC025
     FM300000 33012KT P6SM BKN020
     FM301400 35008KT P6SM SKC=



000
FTUS43 KLSX 291700
TAFSTL
TAF
KSTL 291721Z 2918/3024 31015G25KT P6SM OVC025
     FM300000 33012KT P6SM BKN020
     FM301400 35008KT P6SM SKC=



000
FTUS43 KLSX 291700
TAFSUS
TAF
KSUS 291721Z 2918/3018 31015G25KT P6SM OVC025
     FM300000 33010KT P6SM BKN020
     FM301400 35008KT P6SM SKC=



000
FTUS43 KLSX 291700
TAFCOU
TAF
KCOU 291721Z 2918/3018 32015G25KT P6SM OVC030
     FM300000 33010KT P6SM BKN025
     FM301200 01007KT P6SM SKC=



000
FTUS43 KLSX 291700
TAFUIN
TAF
KUIN 291721Z 2918/3018 32020G28KT P6SM OVC025
     FM300000 33014KT P6SM BKN015
     FM301600 36008KT P6SM SKC=



000
FTUS43 KLSX 291500 AAA
TAFSUS
TAF AMD
KSUS 291555Z 2916/3012 29018G28KT P6SM OVC022
     FM291800 31015G25KT P6SM OVC035
     FM300000 33010KT P6SM BKN020=



000
FTUS43 KLSX 291500 AAB
TAFSTL
TAF AMD
KSTL 291554Z 2916/3018 30018G28KT P6SM OVC022
     FM291800 31015G25KT P6SM OVC025
     FM300000 33012KT P6SM BKN020
     FM301200 35008KT P6SM SKC=



000
FTUS43 KLSX 291500 AAB
TAFUIN
TAF AMD
KUIN 291552Z 2916/3012 31020G30KT P6SM OVC025
     FM291700 32020G28KT P6SM OVC025
     FM300000 33014KT P6SM BKN015=



000
FTUS43 KLSX 291400 AAA
TAFSTL
TAF AMD
KSTL 291450Z 2915/3018 30018G28KT P6SM OVC017
     FM291800 31015G25KT P6SM OVC030
     FM300000 33012KT P6SM BKN025
     FM301200 35008KT P6SM SKC=



000
FTUS43 KLSX 291400 AAA
TAFUIN
TAF AMD
KUIN 291446Z 2915/3012 31020G30KT P6SM OVC015
     FM291700 32020G28KT P6SM OVC020
     FM300000 33014KT P6SM BKN015=



000
FTUS43 KLSX 291100
TAFCOU
TAF
KCOU 291125Z 2912/3012 31018G28KT P6SM OVC015
     FM291700 32015G25KT P6SM OVC030
     FM300000 33010KT P6SM BKN025=



000
FTUS43 KLSX 291100
TAFSTL
TAF
KSTL 291125Z 2912/3018 30018G28KT P6SM OVC017
     FM291800 31015G25KT P6SM OVC030
     FM300000 33012KT P6SM BKN025
     FM301200 35008KT P6SM SKC=



000
FTUS43 KLSX 291100
TAFSUS
TAF
KSUS 291125Z 2912/3012 29018G28KT P6SM OVC018
     FM291800 31015G25KT P6SM OVC030
     FM300000 33010KT P6SM BKN025=



000
FTUS43 KLSX 291100
TAFUIN
TAF
KUIN 291125Z 2912/3012 31020G30KT P6SM OVC010
     FM291700 32020G28KT P6SM OVC020
     FM300000 33014KT P6SM BKN015=



000
FTUS43 KLSX 290900 AAA
TAFSTL
TAF AMD
KSTL 290920Z 2909/3012 23012KT P6SM SCT150 WS018/24050KT
     FM291000 26015G21KT P6SM SKC
     FM291130 29018G28KT P6SM OVC015
     FM291800 31017G26KT P6SM BKN020
     FM292100 32012G20KT P6SM SCT020=



000
FTUS43 KLSX 290500
TAFCOU
TAF
KCOU 290527Z 2906/3006 18013KT P6SM BKN150 WS018/22045KT
     FM290700 25014KT P6SM FEW150
     FM291000 30018G27KT P6SM OVC015
     FM291700 32016G25KT P6SM BKN020
     FM292000 32013G23KT P6SM SCT030
     FM292300 33009KT P6SM SKC=



000
FTUS43 KLSX 290500
TAFUIN
TAF
KUIN 290527Z 2906/3006 18012KT P6SM BKN150 WS018/22045KT
     FM290700 21014KT P6SM FEW150
     FM290900 29022G30KT P6SM OVC010
     FM291800 32020G28KT P6SM BKN020
     FM292100 33014G23KT P6SM SCT020=



000
FTUS43 KLSX 290500
TAFSUS
TAF
KSUS 290527Z 2906/3006 20009KT P6SM BKN150 WS018/23040KT
     FM291000 26014G20KT P6SM BKN100
     FM291200 29018G28KT P6SM OVC015
     FM291700 31017G26KT P6SM BKN020
     FM292100 32012KT P6SM SCT020=



000
FTUS43 KLSX 290500
TAFSTL
TAF
KSTL 290527Z 2906/3012 19012KT P6SM BKN150 WS018/23040KT
     FM291000 26015G21KT P6SM FEW150
     FM291200 29018G28KT P6SM OVC015
     FM291800 31017G26KT P6SM BKN020
     FM292100 32012G20KT P6SM SCT020=



000
FTUS43 KLSX 290300 AAA
TAFSTL
TAF AMD
KSTL 290302Z 2903/3006 19012KT P6SM BKN150 WS018/23040KT
     FM291000 26015G21KT P6SM BKN100
     FM291300 29018G28KT P6SM OVC015
     FM291700 31017G26KT P6SM BKN020
     FM292200 32014KT P6SM SCT030=



000
FTUS43 KLSX 282300
TAFCOU
TAF
KCOU 282322Z 2900/2924 18015KT P6SM BKN150 WS018/22045KT
     FM290700 25014KT P6SM BKN100
     FM291000 30018G27KT P6SM OVC015
     FM291800 32016G25KT P6SM BKN020
     FM292100 32013G23KT P6SM SCT030=



000
FTUS43 KLSX 282300
TAFSUS
TAF
KSUS 282322Z 2900/2924 16010KT P6SM BKN150
     FM290300 20009KT P6SM BKN150 WS018/23040KT
     FM291000 26014G20KT P6SM BKN100
     FM291300 29018G28KT P6SM OVC015
     FM291700 31017G26KT P6SM BKN020
     FM292200 32012KT P6SM SCT030=



000
FTUS43 KLSX 282300
TAFUIN
TAF
KUIN 282322Z 2900/2924 18012KT P6SM BKN150 WS018/22045KT
     FM290700 25014KT P6SM BKN100
     FM291000 29022G30KT P6SM OVC015
     FM291800 32020G28KT P6SM BKN020
     FM292100 32018G25KT P6SM SCT030=



000
FTUS43 KLSX 282300
TAFSTL
TAF
KSTL 282322Z 2900/3006 16014KT P6SM BKN150
     FM290300 20013KT P6SM BKN150 WS018/23040KT
     FM291000 26015G21KT P6SM BKN100
     FM291300 29018G28KT P6SM OVC015
     FM291700 31017G26KT P6SM BKN020
     FM292200 32014KT P6SM SCT030=



000
FTUS43 KLSX 282100 AAA
TAFSTL
TAF AMD
KSTL 282109Z 2821/2924 15015G25KT P6SM BKN250
     FM290000 16014G20KT P6SM BKN150
     FM290300 18013KT P6SM BKN150 WS018/23050KT
     FM290800 24015G21KT P6SM SCT060 BKN150
     FM291200 29018G28KT P6SM OVC020=



000
FTUS43 KLSX 281700
TAFSUS
TAF
KSUS 281736Z 2818/2918 15013G20KT P6SM SCT250
     FM290000 16010KT P6SM BKN150
     FM290200 18011KT P6SM BKN150 WS018/23050KT
     FM290800 24013G20KT P6SM SCT060 BKN150
     FM291200 29015G25KT P6SM OVC020=



000
FTUS43 KLSX 281700
TAFUIN
TAF
KUIN 281736Z 2818/2918 15017G25KT P6SM SCT250
     FM290000 18015G22KT P6SM BKN150 WS018/23050KT
     FM290900 29020G30KT P6SM OVC015=



000
FTUS43 KLSX 281700
TAFSTL
TAF
KSTL 281736Z 2818/2924 15015G25KT P6SM SCT250
     FM290000 16014G20KT P6SM BKN150
     FM290300 18013KT P6SM BKN150 WS018/23050KT
     FM290800 24015G21KT P6SM SCT060 BKN150
     FM291200 29018G28KT P6SM OVC020=



000
FTUS43 KLSX 281700
TAFCOU
TAF
KCOU 281736Z 2818/2918 16015G23KT P6SM SCT250
     FM290000 18015KT P6SM BKN150 WS018/23050KT
     FM290500 23015G22KT P6SM SCT050 BKN150
     FM290900 30018G27KT P6SM OVC020=



000
FTUS43 KLSX 281400 AAB
TAFSTL
TAF AMD
KSTL 281456Z 2815/2918 15015G23KT P6SM SCT250
     FM290000 18015KT P6SM SCT060 BKN200
     FM290300 18015KT P6SM BKN040 WS018/23050KT
     FM290800 23015G21KT P6SM SCT030 BKN200
     FM291100 29018G28KT P6SM BKN020=



    US Dept of Commerce
    National Oceanic and Atmospheric Administration
    National Weather Service
    1325 East West Highway
    Silver Spring, MD 20910
    Page Author: NWS Internet Services Team
Disclaimer
Information Quality
Credits
Glossary
Privacy Policy
Freedom of Information Act (FOIA)
About Us
Career Opportunities